Time;durP1;ratioP1;P1;durP2;ratioP2;P2;SDS_P1;SDS_P2;PMS_P1;PMS_P2;Temp;Humidity;BMP_temperature;BMP_pressure;BME280_temperature;BME280_humidity;BME280_pressure;Samples;Min_cycle;Max_cycle;Signal;HPM_P1;HPM_P2
2022/12/18 00:01:24;;;;;;;31.83;20.27;;;;;;;;;;4927502;28;20134;-45
2022/12/18 00:03:50;;;;;;;35.47;21.35;;;;;;;;;;4926319;29;20794;-41
2022/12/18 00:06:16;;;;;;;31.75;19.73;;;;;;;;;;4923522;28;20110;-42
2022/12/18 00:08:42;;;;;;;32.53;18.83;;;;;;;;;;4924932;29;20040;-42
2022/12/18 00:11:11;;;;;;;33.28;20.13;;;;;;;;;;4925424;29;20056;-42
2022/12/18 00:13:36;;;;;;;36.17;20.60;;;;;;;;;;4928154;29;20061;-45
2022/12/18 00:16:03;;;;;;;28.42;17.95;;;;;;;;;;4929744;29;20180;-41
2022/12/18 00:18:29;;;;;;;31.13;19.88;;;;;;;;;;4929273;29;20027;-44
2022/12/18 00:20:58;;;;;;;29.42;17.38;;;;;;;;;;4927219;28;20043;-42
2022/12/18 00:23:24;;;;;;;25.15;15.18;;;;;;;;;;4928059;29;20032;-43
2022/12/18 00:25:49;;;;;;;21.33;13.93;;;;;;;;;;4922506;29;20032;-43
2022/12/18 00:28:14;;;;;;;21.73;14.52;;;;;;;;;;4929082;29;20471;-44
2022/12/18 00:30:40;;;;;;;24.63;16.65;;;;;;;;;;4927717;28;20092;-41
2022/12/18 00:33:05;;;;;;;21.35;15.55;;;;;;;;;;4927572;29;20107;-42
2022/12/18 00:35:31;;;;;;;25.52;16.63;;;;;;;;;;4924943;29;20047;-44
2022/12/18 00:37:56;;;;;;;24.27;16.52;;;;;;;;;;4926684;28;20155;-43
2022/12/18 00:40:22;;;;;;;24.08;16.45;;;;;;;;;;4927279;29;20114;-42
2022/12/18 00:42:56;;;;;;;24.65;16.15;;;;;;;;;;4925328;29;20059;-43
2022/12/18 00:45:27;;;;;;;24.80;16.30;;;;;;;;;;4927125;29;20035;-42
2022/12/18 00:47:52;;;;;;;23.08;13.73;;;;;;;;;;4927435;28;20103;-41
2022/12/18 00:50:18;;;;;;;16.92;10.88;;;;;;;;;;4926375;29;20048;-43
2022/12/18 00:52:44;;;;;;;12.43;9.40;;;;;;;;;;4928410;28;20050;-44
2022/12/18 00:55:10;;;;;;;12.52;9.20;;;;;;;;;;4926009;29;20028;-42
2022/12/18 00:57:35;;;;;;;13.90;9.55;;;;;;;;;;4921651;29;20665;-41
2022/12/18 01:00:01;;;;;;;13.77;9.10;;;;;;;;;;4928060;29;20031;-42
2022/12/18 01:02:26;;;;;;;13.57;8.75;;;;;;;;;;4927180;29;20087;-44
2022/12/18 01:04:52;;;;;;;14.35;9.43;;;;;;;;;;4927394;29;20051;-42
2022/12/18 01:07:17;;;;;;;17.08;9.20;;;;;;;;;;4926033;28;20050;-43
2022/12/18 01:09:42;;;;;;;15.10;10.93;;;;;;;;;;4925287;29;20028;-43
2022/12/18 01:12:08;;;;;;;15.55;7.88;;;;;;;;;;4925092;29;20067;-46
2022/12/18 01:14:33;;;;;;;9.95;7.57;;;;;;;;;;4919523;29;20059;-43
2022/12/18 01:16:58;;;;;;;11.18;9.10;;;;;;;;;;4926458;28;20044;-44
2022/12/18 01:19:24;;;;;;;12.57;7.55;;;;;;;;;;4926868;28;20055;-41
2022/12/18 01:21:49;;;;;;;10.73;7.63;;;;;;;;;;4926046;28;20108;-42
2022/12/18 01:24:15;;;;;;;8.27;6.85;;;;;;;;;;4928305;29;20501;-42
2022/12/18 01:26:40;;;;;;;9.23;6.68;;;;;;;;;;4928633;29;20529;-43
2022/12/18 01:29:05;;;;;;;8.52;5.88;;;;;;;;;;4929811;29;20039;-44
2022/12/18 01:31:33;;;;;;;12.45;8.13;;;;;;;;;;4928109;28;20036;-42
2022/12/18 01:34:01;;;;;;;10.73;9.10;;;;;;;;;;4931208;29;20035;-43
2022/12/18 01:36:31;;;;;;;14.13;9.13;;;;;;;;;;4929703;28;20131;-42
2022/12/18 01:39:00;;;;;;;11.52;8.88;;;;;;;;;;4928208;29;20127;-42
2022/12/18 01:42:01;;;;;;;14.23;10.45;;;;;;;;;;4929752;28;20063;-44
2022/12/18 01:44:55;;;;;;;17.50;10.85;;;;;;;;;;4929698;29;20122;-42
2022/12/18 01:47:23;;;;;;;16.88;8.88;;;;;;;;;;4929382;29;20530;-45
2022/12/18 01:49:49;;;;;;;11.63;9.25;;;;;;;;;;4929577;29;20046;-42
2022/12/18 01:52:15;;;;;;;11.02;8.38;;;;;;;;;;4929676;28;20032;-42
2022/12/18 01:54:41;;;;;;;12.80;8.75;;;;;;;;;;4929814;29;20051;-44
2022/12/18 01:57:07;;;;;;;8.80;7.68;;;;;;;;;;4928900;28;20127;-42
2022/12/18 01:59:33;;;;;;;10.45;7.60;;;;;;;;;;4929615;29;21596;-42
2022/12/18 02:02:00;;;;;;;7.43;6.60;;;;;;;;;;4928667;29;20568;-43
2022/12/18 02:04:27;;;;;;;13.00;7.30;;;;;;;;;;4929646;29;20039;-44
2022/12/18 02:07:14;;;;;;;10.27;7.38;;;;;;;;;;4927469;28;20043;-45
2022/12/18 02:10:05;;;;;;;16.33;8.55;;;;;;;;;;4928951;29;20046;-42
2022/12/18 02:12:50;;;;;;;13.43;8.63;;;;;;;;;;4929162;29;20043;-46
2022/12/18 02:15:23;;;;;;;6.80;5.25;;;;;;;;;;4930785;29;20095;-47
2022/12/18 02:18:07;;;;;;;6.28;5.40;;;;;;;;;;4924666;28;20037;-45
2022/12/18 02:21:05;;;;;;;7.68;5.18;;;;;;;;;;4926438;29;20483;-42
2022/12/18 02:23:55;;;;;;;7.55;5.70;;;;;;;;;;4926108;29;20040;-42
2022/12/18 02:26:34;;;;;;;5.43;4.85;;;;;;;;;;4928015;28;20063;-44
2022/12/18 02:29:04;;;;;;;6.43;5.00;;;;;;;;;;4929443;29;20044;-43
2022/12/18 02:31:42;;;;;;;6.47;5.00;;;;;;;;;;4922510;28;20039;-45
2022/12/18 02:34:09;;;;;;;6.25;4.70;;;;;;;;;;4909089;29;20044;-43
2022/12/18 02:36:38;;;;;;;5.60;4.63;;;;;;;;;;4907167;29;20056;-47
2022/12/18 02:39:06;;;;;;;7.18;4.93;;;;;;;;;;4908892;29;20059;-42
2022/12/18 02:41:31;;;;;;;6.50;4.50;;;;;;;;;;4911662;29;20036;-43
2022/12/18 02:43:59;;;;;;;6.25;4.53;;;;;;;;;;4910862;29;20119;-42
2022/12/18 02:46:34;;;;;;;8.18;4.38;;;;;;;;;;4908250;29;20517;-42
2022/12/18 02:49:17;;;;;;;7.30;5.35;;;;;;;;;;4907003;29;20056;-42
2022/12/18 02:51:51;;;;;;;5.53;4.68;;;;;;;;;;4909402;29;20401;-43
2022/12/18 02:54:37;;;;;;;11.38;5.15;;;;;;;;;;4909516;29;20112;-47
2022/12/18 02:57:18;;;;;;;7.78;4.72;;;;;;;;;;4908449;29;20047;-45
2022/12/18 03:00:11;;;;;;;4.82;4.32;;;;;;;;;;4908382;29;20040;-45
2022/12/18 03:02:48;;;;;;;5.70;4.32;;;;;;;;;;4871664;29;20082;-43
2022/12/18 03:05:24;;;;;;;6.40;4.65;;;;;;;;;;4870253;29;20068;-43
2022/12/18 03:08:21;;;;;;;4.90;4.25;;;;;;;;;;4869611;29;20053;-43
2022/12/18 03:11:03;;;;;;;5.57;4.63;;;;;;;;;;4861064;29;20085;-43
2022/12/18 03:13:44;;;;;;;5.55;4.40;;;;;;;;;;4869704;29;20045;-42
2022/12/18 03:16:15;;;;;;;4.82;4.28;;;;;;;;;;4869717;29;20076;-44
2022/12/18 03:18:46;;;;;;;5.68;4.15;;;;;;;;;;4868845;29;20538;-45
2022/12/18 03:21:15;;;;;;;6.10;3.95;;;;;;;;;;4871993;29;20081;-42
2022/12/18 03:23:46;;;;;;;4.85;4.25;;;;;;;;;;4872630;29;20485;-46
2022/12/18 03:26:15;;;;;;;4.82;4.20;;;;;;;;;;4871051;29;20051;-42
2022/12/18 03:28:49;;;;;;;6.10;4.28;;;;;;;;;;4866354;29;20157;-44
2022/12/18 03:31:16;;;;;;;6.57;4.57;;;;;;;;;;4872286;29;20041;-43
2022/12/18 03:33:58;;;;;;;5.20;4.63;;;;;;;;;;4870953;29;20051;-42
2022/12/18 03:36:24;;;;;;;7.40;4.70;;;;;;;;;;4872057;29;20575;-42
2022/12/18 03:38:50;;;;;;;6.97;4.70;;;;;;;;;;4874828;29;20035;-42
2022/12/18 03:41:27;;;;;;;5.60;4.57;;;;;;;;;;4909203;29;20388;-44
2022/12/18 03:44:06;;;;;;;6.00;4.72;;;;;;;;;;4907637;29;20028;-44
2022/12/18 03:46:58;;;;;;;5.53;4.25;;;;;;;;;;4913776;28;20036;-42
2022/12/18 03:49:34;;;;;;;8.40;4.47;;;;;;;;;;4929194;29;20043;-44
2022/12/18 03:52:05;;;;;;;5.70;4.38;;;;;;;;;;4926409;28;20470;-45
2022/12/18 03:54:33;;;;;;;6.45;4.75;;;;;;;;;;4929112;29;20078;-42
2022/12/18 03:57:06;;;;;;;6.28;4.85;;;;;;;;;;4927075;28;20039;-42
2022/12/18 03:59:32;;;;;;;12.23;5.20;;;;;;;;;;4925853;29;20829;-42
2022/12/18 04:02:00;;;;;;;6.72;5.10;;;;;;;;;;4927573;28;20175;-42
2022/12/18 04:04:28;;;;;;;5.97;4.88;;;;;;;;;;4925746;29;20035;-43
2022/12/18 04:06:54;;;;;;;6.22;4.75;;;;;;;;;;4926315;29;20052;-43
2022/12/18 04:09:20;;;;;;;7.63;5.45;;;;;;;;;;4931074;29;20035;-42
2022/12/18 04:11:47;;;;;;;7.65;6.00;;;;;;;;;;4922362;29;20078;-43
2022/12/18 04:14:12;;;;;;;10.27;5.53;;;;;;;;;;4926767;29;20036;-45
2022/12/18 04:16:38;;;;;;;6.88;5.20;;;;;;;;;;4929837;28;20039;-47
2022/12/18 04:19:04;;;;;;;5.78;5.18;;;;;;;;;;4927508;29;20471;-45
2022/12/18 04:21:29;;;;;;;5.80;5.20;;;;;;;;;;4923950;29;21050;-44
2022/12/18 04:23:55;;;;;;;7.05;5.40;;;;;;;;;;4929165;29;20165;-43
2022/12/18 04:26:20;;;;;;;8.40;5.00;;;;;;;;;;4927484;28;20546;-42
2022/12/18 04:28:45;;;;;;;6.57;5.18;;;;;;;;;;4924739;29;20044;-43
2022/12/18 04:31:11;;;;;;;6.93;4.80;;;;;;;;;;4926596;28;20118;-44
2022/12/18 04:33:36;;;;;;;7.85;5.05;;;;;;;;;;4927344;29;20031;-42
2022/12/18 04:36:02;;;;;;;6.38;5.20;;;;;;;;;;4922829;28;20111;-43
2022/12/18 04:38:27;;;;;;;7.35;5.03;;;;;;;;;;4925935;29;20044;-42
2022/12/18 04:40:53;;;;;;;7.38;5.15;;;;;;;;;;4926265;29;20055;-45
2022/12/18 04:43:18;;;;;;;6.32;5.40;;;;;;;;;;4927818;29;20046;-47
2022/12/18 04:45:44;;;;;;;7.78;5.00;;;;;;;;;;4926811;29;20035;-42
2022/12/18 04:48:09;;;;;;;6.70;4.88;;;;;;;;;;4925510;29;20019;-42
2022/12/18 04:50:34;;;;;;;7.43;4.85;;;;;;;;;;4928486;29;20090;-42
2022/12/18 04:53:00;;;;;;;7.53;4.72;;;;;;;;;;4925305;28;20048;-44
2022/12/18 04:55:26;;;;;;;7.85;5.32;;;;;;;;;;4931012;29;20034;-43
2022/12/18 04:57:51;;;;;;;5.40;4.18;;;;;;;;;;4923075;28;20507;-43
2022/12/18 05:00:17;;;;;;;7.13;4.55;;;;;;;;;;4926873;29;20032;-45
2022/12/18 05:02:42;;;;;;;6.03;4.30;;;;;;;;;;4924930;29;20413;-42
2022/12/18 05:05:08;;;;;;;7.13;4.05;;;;;;;;;;4927004;29;20118;-43
2022/12/18 05:07:34;;;;;;;7.05;4.63;;;;;;;;;;4925622;29;20067;-42
2022/12/18 05:09:59;;;;;;;6.57;4.20;;;;;;;;;;4929753;29;20038;-43
2022/12/18 05:12:25;;;;;;;5.57;4.35;;;;;;;;;;4925588;28;20091;-43
2022/12/18 05:14:50;;;;;;;7.13;4.30;;;;;;;;;;4923775;28;20040;-43
2022/12/18 05:17:16;;;;;;;6.05;4.60;;;;;;;;;;4931522;29;20047;-41
2022/12/18 05:19:41;;;;;;;5.55;4.35;;;;;;;;;;4923782;29;20043;-42
2022/12/18 05:22:06;;;;;;;9.35;3.80;;;;;;;;;;4925946;28;20122;-42
2022/12/18 05:24:32;;;;;;;4.80;3.90;;;;;;;;;;4926775;29;20439;-42
2022/12/18 05:26:57;;;;;;;4.28;3.85;;;;;;;;;;4926137;28;20035;-43
2022/12/18 05:29:22;;;;;;;4.38;3.30;;;;;;;;;;4928417;29;20479;-43
2022/12/18 05:31:48;;;;;;;5.68;3.50;;;;;;;;;;4927655;28;20044;-44
2022/12/18 05:34:13;;;;;;;6.28;3.67;;;;;;;;;;4925053;29;20552;-45
2022/12/18 05:36:39;;;;;;;6.18;3.80;;;;;;;;;;4925381;28;20545;-43
2022/12/18 05:39:04;;;;;;;4.55;3.72;;;;;;;;;;4921314;29;20653;-42
2022/12/18 05:41:30;;;;;;;4.65;4.20;;;;;;;;;;4924882;29;20048;-42
2022/12/18 05:43:55;;;;;;;6.25;3.85;;;;;;;;;;4923814;29;20039;-42
2022/12/18 05:46:20;;;;;;;5.15;3.75;;;;;;;;;;4926304;28;20126;-42
2022/12/18 05:48:46;;;;;;;5.32;4.05;;;;;;;;;;4928107;29;20514;-43
2022/12/18 05:51:17;;;;;;;5.00;3.78;;;;;;;;;;4921897;28;20047;-44
2022/12/18 05:53:43;;;;;;;5.05;4.38;;;;;;;;;;4922248;29;20533;-42
2022/12/18 05:56:17;;;;;;;10.40;4.13;;;;;;;;;;4928385;29;20044;-43
2022/12/18 05:58:42;;;;;;;6.45;3.75;;;;;;;;;;4922438;29;20048;-42
2022/12/18 06:01:13;;;;;;;5.13;4.03;;;;;;;;;;4923602;28;20054;-43
2022/12/18 06:03:40;;;;;;;7.22;3.72;;;;;;;;;;4926935;29;20091;-42
2022/12/18 06:06:20;;;;;;;5.07;4.28;;;;;;;;;;4924165;29;20052;-42
2022/12/18 06:08:46;;;;;;;4.35;3.95;;;;;;;;;;4926907;29;20122;-42
2022/12/18 06:11:11;;;;;;;5.60;4.00;;;;;;;;;;4926595;28;20126;-41
2022/12/18 06:13:37;;;;;;;6.35;4.40;;;;;;;;;;4930395;29;20055;-42
2022/12/18 06:16:04;;;;;;;10.43;4.63;;;;;;;;;;4929372;29;20058;-44
2022/12/18 06:18:30;;;;;;;7.95;4.13;;;;;;;;;;4930083;29;20854;-42
2022/12/18 06:20:56;;;;;;;10.45;4.07;;;;;;;;;;4928355;29;20040;-43
2022/12/18 06:23:22;;;;;;;5.43;3.92;;;;;;;;;;4928553;29;20090;-44
2022/12/18 06:25:47;;;;;;;4.28;3.88;;;;;;;;;;4930369;28;20044;-43
2022/12/18 06:28:13;;;;;;;5.18;4.03;;;;;;;;;;4931759;28;20495;-44
2022/12/18 06:30:38;;;;;;;4.63;4.10;;;;;;;;;;4928983;29;20042;-45
2022/12/18 06:33:03;;;;;;;6.53;3.90;;;;;;;;;;4926923;28;20048;-44
2022/12/18 06:35:29;;;;;;;5.57;4.05;;;;;;;;;;4928202;29;20036;-43
2022/12/18 06:37:54;;;;;;;4.63;3.78;;;;;;;;;;4931051;28;20736;-46
2022/12/18 06:40:20;;;;;;;5.90;4.03;;;;;;;;;;4927419;29;22786;-42
2022/12/18 06:42:45;;;;;;;4.00;3.70;;;;;;;;;;4931039;28;20051;-42
2022/12/18 06:45:11;;;;;;;6.15;4.03;;;;;;;;;;4926998;29;20034;-42
2022/12/18 06:47:36;;;;;;;5.57;4.30;;;;;;;;;;4932184;28;20695;-42
2022/12/18 06:50:02;;;;;;;5.78;4.32;;;;;;;;;;4927241;29;20051;-45
2022/12/18 06:52:27;;;;;;;7.20;4.15;;;;;;;;;;4928127;28;20582;-42
2022/12/18 06:54:53;;;;;;;6.82;4.60;;;;;;;;;;4930020;29;20083;-42
2022/12/18 06:57:18;;;;;;;5.78;4.53;;;;;;;;;;4929566;28;20043;-42
2022/12/18 06:59:44;;;;;;;5.38;4.32;;;;;;;;;;4928211;29;20040;-45
2022/12/18 07:02:12;;;;;;;13.52;4.30;;;;;;;;;;4925539;28;20139;-43
2022/12/18 07:04:38;;;;;;;5.93;4.53;;;;;;;;;;4924519;29;20634;-43
2022/12/18 07:07:03;;;;;;;7.32;5.00;;;;;;;;;;4927409;29;20138;-43
2022/12/18 07:09:28;;;;;;;6.13;4.60;;;;;;;;;;4931430;29;20043;-42
2022/12/18 07:11:54;;;;;;;4.47;3.92;;;;;;;;;;4927462;28;20044;-45
2022/12/18 07:14:19;;;;;;;6.10;4.03;;;;;;;;;;4929187;29;20398;-42
2022/12/18 07:16:44;;;;;;;6.82;4.25;;;;;;;;;;4929415;28;20043;-45
2022/12/18 07:19:10;;;;;;;5.72;3.70;;;;;;;;;;4928626;29;20035;-42
2022/12/18 07:21:35;;;;;;;7.20;3.95;;;;;;;;;;4924314;29;20553;-42
2022/12/18 07:24:00;;;;;;;5.28;3.97;;;;;;;;;;4929225;29;20177;-44
2022/12/18 07:26:26;;;;;;;6.93;4.80;;;;;;;;;;4927360;28;20047;-42
2022/12/18 07:28:55;;;;;;;7.72;4.35;;;;;;;;;;4929244;28;20060;-42
2022/12/18 07:31:21;;;;;;;7.05;4.57;;;;;;;;;;4929765;28;20048;-43
2022/12/18 07:33:47;;;;;;;4.80;3.72;;;;;;;;;;4928376;29;20027;-44
2022/12/18 07:36:13;;;;;;;7.13;4.18;;;;;;;;;;4921812;28;20051;-44
2022/12/18 07:38:39;;;;;;;4.57;3.83;;;;;;;;;;4924771;29;20724;-42
2022/12/18 07:41:11;;;;;;;11.40;4.28;;;;;;;;;;4925886;28;20047;-44
2022/12/18 07:43:36;;;;;;;7.40;3.92;;;;;;;;;;4922251;29;20059;-43
2022/12/18 07:46:02;;;;;;;7.30;3.60;;;;;;;;;;4926147;28;20040;-43
2022/12/18 07:48:29;;;;;;;5.43;3.78;;;;;;;;;;4928519;29;20044;-43
2022/12/18 07:51:01;;;;;;;7.55;4.32;;;;;;;;;;4920359;29;20040;-44
2022/12/18 07:53:27;;;;;;;5.63;4.30;;;;;;;;;;4925774;29;20118;-43
2022/12/18 07:56:01;;;;;;;6.82;5.10;;;;;;;;;;4924702;28;20520;-46
2022/12/18 07:58:28;;;;;;;11.30;5.15;;;;;;;;;;4917775;29;20031;-45
2022/12/18 08:00:53;;;;;;;5.38;3.83;;;;;;;;;;4925001;28;20028;-42
2022/12/18 08:03:19;;;;;;;6.10;4.28;;;;;;;;;;4922568;29;21307;-44
2022/12/18 08:05:44;;;;;;;5.85;3.83;;;;;;;;;;4924744;28;20122;-42
2022/12/18 08:08:10;;;;;;;5.95;3.33;;;;;;;;;;4921964;29;20695;-47
2022/12/18 08:10:35;;;;;;;5.20;2.95;;;;;;;;;;4922468;29;20035;-47
2022/12/18 08:13:01;;;;;;;3.75;2.60;;;;;;;;;;4922606;29;20040;-43
2022/12/18 08:15:26;;;;;;;5.28;3.00;;;;;;;;;;4925771;29;20106;-45
2022/12/18 08:17:51;;;;;;;8.15;3.22;;;;;;;;;;4922551;29;20040;-44
2022/12/18 08:20:18;;;;;;;6.22;2.75;;;;;;;;;;4925731;29;20032;-46
2022/12/18 08:22:43;;;;;;;3.35;3.05;;;;;;;;;;4927488;28;20494;-42
2022/12/18 08:25:09;;;;;;;4.90;3.10;;;;;;;;;;4921959;29;20027;-42
2022/12/18 08:27:35;;;;;;;2.92;2.72;;;;;;;;;;4922084;28;20032;-43
2022/12/18 08:30:00;;;;;;;5.07;3.30;;;;;;;;;;4919210;29;20036;-50
2022/12/18 08:32:27;;;;;;;6.40;3.13;;;;;;;;;;4923104;28;20084;-42
2022/12/18 08:34:52;;;;;;;5.57;3.35;;;;;;;;;;4921609;29;20602;-45
2022/12/18 08:37:18;;;;;;;6.25;3.47;;;;;;;;;;4922911;28;20043;-42
2022/12/18 08:39:43;;;;;;;5.63;3.40;;;;;;;;;;4918266;29;20094;-43
2022/12/18 08:44:53;;;;;;;4.80;3.17;;;;;;;;;;4921237;29;20406;-43
2022/12/18 08:47:18;;;;;;;6.25;3.00;;;;;;;;;;4924633;28;20039;-43
2022/12/18 08:49:44;;;;;;;3.15;2.85;;;;;;;;;;4923820;29;20071;-43
2022/12/18 08:52:09;;;;;;;5.70;3.33;;;;;;;;;;4924297;28;20050;-42
2022/12/18 08:56:39;;;;;;;5.75;2.78;;;;;;;;;;5021691;27;20645;-43
2022/12/18 08:59:05;;;;;;;5.60;3.65;;;;;;;;;;5005540;28;20038;-43
2022/12/18 09:01:30;;;;;;;5.30;3.33;;;;;;;;;;5002089;28;20046;-44
2022/12/18 09:03:56;;;;;;;5.80;3.25;;;;;;;;;;5000814;28;20491;-42
2022/12/18 09:06:23;;;;;;;5.40;3.28;;;;;;;;;;5001826;28;20050;-46
2022/12/18 09:08:48;;;;;;;5.95;3.28;;;;;;;;;;4994171;28;20046;-42
2022/12/18 09:11:23;;;;;;;7.72;4.25;;;;;;;;;;4991233;28;20038;-43
2022/12/18 09:13:49;;;;;;;3.78;3.20;;;;;;;;;;4998313;28;20075;-42
2022/12/18 09:16:15;;;;;;;5.38;3.72;;;;;;;;;;4997556;28;20030;-43
2022/12/18 09:18:41;;;;;;;6.55;4.47;;;;;;;;;;4999451;28;20045;-43
2022/12/18 09:21:15;;;;;;;5.93;3.60;;;;;;;;;;4994794;28;20026;-42
2022/12/18 09:23:41;;;;;;;3.67;3.10;;;;;;;;;;4996067;28;20419;-42
2022/12/18 09:26:07;;;;;;;4.30;3.50;;;;;;;;;;4998248;28;20027;-43
2022/12/18 09:28:33;;;;;;;9.75;3.50;;;;;;;;;;5000623;28;20049;-44
2022/12/18 09:30:58;;;;;;;5.47;3.47;;;;;;;;;;5000589;28;20380;-48
2022/12/18 09:33:24;;;;;;;4.82;3.35;;;;;;;;;;5002637;28;20033;-44
2022/12/18 09:35:49;;;;;;;4.15;3.22;;;;;;;;;;5001650;28;20121;-43
2022/12/18 09:38:18;;;;;;;3.45;3.03;;;;;;;;;;5001275;28;20706;-42
2022/12/18 09:40:47;;;;;;;7.90;3.28;;;;;;;;;;5002320;28;20056;-43
2022/12/18 09:43:27;;;;;;;5.50;3.47;;;;;;;;;;5000132;28;20038;-42
2022/12/18 09:45:58;;;;;;;4.38;2.88;;;;;;;;;;4999163;28;20034;-48
2022/12/18 09:48:30;;;;;;;4.65;3.15;;;;;;;;;;5001131;28;20034;-44
2022/12/18 09:51:02;;;;;;;5.90;3.28;;;;;;;;;;5002894;28;20808;-44
2022/12/18 09:53:32;;;;;;;3.50;2.57;;;;;;;;;;4999621;28;20045;-44
2022/12/18 09:56:00;;;;;;;5.05;3.13;;;;;;;;;;4994598;28;20057;-48
2022/12/18 09:58:44;;;;;;;8.43;3.10;;;;;;;;;;4993081;28;20079;-44
2022/12/18 10:01:14;;;;;;;6.05;3.13;;;;;;;;;;4998471;28;20479;-44
2022/12/18 10:03:39;;;;;;;7.95;3.00;;;;;;;;;;4998756;28;20046;-42
2022/12/18 10:06:18;;;;;;;6.88;3.38;;;;;;;;;;4996758;28;20061;-42
2022/12/18 10:09:05;;;;;;;6.80;2.92;;;;;;;;;;4983093;28;20026;-43
2022/12/18 10:11:55;;;;;;;6.20;3.20;;;;;;;;;;4985399;28;20442;-41
2022/12/18 10:14:39;;;;;;;9.15;2.92;;;;;;;;;;4988853;28;20089;-43
2022/12/18 10:17:28;;;;;;;16.75;6.30;;;;;;;;;;4989654;28;20031;-43
2022/12/18 10:20:01;;;;;;;7.63;3.70;;;;;;;;;;4990462;28;20086;-43
2022/12/18 10:22:45;;;;;;;7.25;2.75;;;;;;;;;;4989891;28;20562;-47
2022/12/18 10:25:20;;;;;;;3.88;2.72;;;;;;;;;;4991949;28;20045;-43
2022/12/18 10:27:46;;;;;;;6.28;3.40;;;;;;;;;;4983373;28;20069;-43
2022/12/18 10:30:20;;;;;;;4.53;3.00;;;;;;;;;;4992398;28;20038;-45
2022/12/18 10:32:45;;;;;;;7.55;2.80;;;;;;;;;;4987094;28;20042;-43
2022/12/18 10:35:26;;;;;;;5.28;3.10;;;;;;;;;;4990822;28;20092;-42
2022/12/18 10:38:10;;;;;;;6.28;3.28;;;;;;;;;;4989384;28;20509;-42
2022/12/18 10:40:48;;;;;;;4.90;2.88;;;;;;;;;;4986920;28;20053;-43
2022/12/18 10:43:15;;;;;;;5.03;2.63;;;;;;;;;;4989054;28;20464;-42
2022/12/18 10:45:42;;;;;;;4.25;2.67;;;;;;;;;;4988153;28;20031;-43
2022/12/18 10:48:21;;;;;;;2.65;2.38;;;;;;;;;;4984519;28;20035;-42
2022/12/18 10:50:50;;;;;;;10.70;3.03;;;;;;;;;;4985604;28;20612;-44
2022/12/18 10:53:22;;;;;;;5.72;2.80;;;;;;;;;;4988574;28;20046;-43
2022/12/18 10:55:48;;;;;;;8.02;3.15;;;;;;;;;;4988332;28;20045;-43
2022/12/18 10:58:25;;;;;;;7.07;3.60;;;;;;;;;;4986894;28;20128;-42
2022/12/18 11:01:15;;;;;;;5.57;3.67;;;;;;;;;;4991911;28;20410;-43
2022/12/18 11:03:46;;;;;;;9.70;4.40;;;;;;;;;;4989581;28;20406;-43
2022/12/18 11:06:16;;;;;;;6.32;4.63;;;;;;;;;;4990467;28;20566;-45
2022/12/18 11:08:56;;;;;;;5.93;4.00;;;;;;;;;;4987064;28;20448;-43
2022/12/18 11:11:23;;;;;;;9.32;4.85;;;;;;;;;;4984880;28;20530;-43
2022/12/18 11:14:03;;;;;;;6.63;2.83;;;;;;;;;;4990052;28;20038;-45
2022/12/18 11:16:30;;;;;;;5.97;3.65;;;;;;;;;;4985095;28;20031;-42
2022/12/18 11:19:13;;;;;;;6.78;2.80;;;;;;;;;;4987043;28;20010;-43
2022/12/18 11:21:42;;;;;;;;;;;;;;;;;;4989971;28;20490;-45
2022/12/18 11:24:21;;;;;;;6.88;3.78;;;;;;;;;;4988329;28;19913;-42
2022/12/18 11:26:46;;;;;;;7.90;3.60;;;;;;;;;;4991645;28;20038;-44
2022/12/18 11:29:18;;;;;;;9.82;3.13;;;;;;;;;;4985909;28;20384;-44
2022/12/18 11:31:43;;;;;;;7.63;3.23;;;;;;;;;;4987865;28;20072;-43
2022/12/18 11:34:18;;;;;;;7.30;3.10;;;;;;;;;;4989009;28;20062;-44
2022/12/18 11:36:46;;;;;;;8.52;3.38;;;;;;;;;;4984684;28;20041;-45
2022/12/18 11:39:20;;;;;;;7.82;3.17;;;;;;;;;;4987794;28;20058;-42
2022/12/18 11:42:11;;;;;;;8.32;3.67;;;;;;;;;;4984214;28;20446;-45
2022/12/18 11:44:58;;;;;;;6.40;3.40;;;;;;;;;;4986082;28;20054;-43
2022/12/18 11:47:45;;;;;;;7.57;3.10;;;;;;;;;;4987565;28;20122;-44
2022/12/18 11:50:37;;;;;;;7.00;2.90;;;;;;;;;;4985840;28;20045;-43
2022/12/18 11:53:02;;;;;;;7.68;3.22;;;;;;;;;;4990010;28;20566;-42
2022/12/18 11:55:31;;;;;;;14.02;3.20;;;;;;;;;;4993301;28;20050;-43
2022/12/18 11:58:15;;;;;;;4.25;3.05;;;;;;;;;;4997888;28;20058;-44
2022/12/18 12:00:49;;;;;;;8.98;2.83;;;;;;;;;;4996126;28;20026;-43
2022/12/18 12:03:35;;;;;;;8.45;3.70;;;;;;;;;;4995405;28;20207;-43
2022/12/18 12:06:14;;;;;;;8.93;3.45;;;;;;;;;;4997136;28;20081;-42
2022/12/18 12:08:46;;;;;;;6.32;3.03;;;;;;;;;;4992339;28;20046;-44
2022/12/18 12:11:49;;;;;;;8.80;3.10;;;;;;;;;;4998450;28;20466;-42
2022/12/18 12:14:26;;;;;;;6.90;3.05;;;;;;;;;;4997140;28;20046;-41
2022/12/18 12:17:03;;;;;;;9.63;4.70;;;;;;;;;;4992884;28;21835;-44
2022/12/18 12:19:47;;;;;;;16.42;7.25;;;;;;;;;;4991824;28;20126;-43
2022/12/18 12:22:22;;;;;;;6.35;3.75;;;;;;;;;;4998713;28;20412;-43
2022/12/18 12:25:02;;;;;;;8.00;4.95;;;;;;;;;;4995723;28;20057;-42
2022/12/18 12:27:56;;;;;;;14.18;3.80;;;;;;;;;;4992550;28;20650;-43
2022/12/18 12:30:26;;;;;;;7.00;3.13;;;;;;;;;;4982582;28;20129;-42
2022/12/18 12:32:57;;;;;;;3.58;2.47;;;;;;;;;;4989414;28;20049;-42
2022/12/18 12:35:28;;;;;;;3.35;2.90;;;;;;;;;;4984801;28;20019;-43
2022/12/18 12:38:15;;;;;;;5.32;3.00;;;;;;;;;;4986037;28;20045;-46
2022/12/18 12:40:46;;;;;;;8.32;3.10;;;;;;;;;;4981888;28;20030;-43
2022/12/18 12:43:23;;;;;;;4.72;3.45;;;;;;;;;;5015558;28;20047;-42
2022/12/18 12:46:09;;;;;;;11.02;2.63;;;;;;;;;;4985388;28;20073;-44
2022/12/18 12:48:46;;;;;;;5.55;2.75;;;;;;;;;;4988945;28;20656;-43
2022/12/18 12:51:19;;;;;;;8.77;3.70;;;;;;;;;;4985014;28;20045;-42
2022/12/18 12:53:45;;;;;;;8.38;2.60;;;;;;;;;;4980931;28;20050;-43
2022/12/18 12:56:14;;;;;;;5.57;2.80;;;;;;;;;;4985455;28;20187;-45
2022/12/18 12:59:18;;;;;;;7.28;3.17;;;;;;;;;;4984991;28;20065;-43
2022/12/18 13:02:28;;;;;;;4.07;2.50;;;;;;;;;;4983702;28;20035;-43
2022/12/18 13:05:23;;;;;;;5.72;3.20;;;;;;;;;;4942501;28;20043;-43
2022/12/18 13:07:57;;;;;;;9.50;2.95;;;;;;;;;;4913026;29;20040;-43
2022/12/18 13:10:26;;;;;;;7.10;3.42;;;;;;;;;;4923401;29;20071;-42
2022/12/18 13:13:00;;;;;;;7.47;3.00;;;;;;;;;;4924536;28;20047;-43
2022/12/18 13:15:46;;;;;;;13.52;3.33;;;;;;;;;;4925068;29;20058;-43
2022/12/18 13:18:22;;;;;;;6.15;3.08;;;;;;;;;;4924065;28;20047;-43
2022/12/18 13:21:01;;;;;;;5.03;3.03;;;;;;;;;;4926078;29;20071;-44
2022/12/18 13:23:28;;;;;;;7.88;3.78;;;;;;;;;;4923279;28;20036;-43
2022/12/18 13:26:17;;;;;;;3.90;3.10;;;;;;;;;;4925315;29;20398;-44
2022/12/18 13:28:45;;;;;;;6.13;3.15;;;;;;;;;;4922236;29;20036;-43
2022/12/18 13:31:12;;;;;;;5.35;2.90;;;;;;;;;;4924208;29;20031;-44
2022/12/18 13:33:41;;;;;;;5.00;2.60;;;;;;;;;;4925055;29;20039;-43
2022/12/18 13:36:12;;;;;;;6.63;2.53;;;;;;;;;;4925072;29;20119;-42
2022/12/18 13:38:39;;;;;;;6.82;3.05;;;;;;;;;;4923650;29;20044;-43
2022/12/18 13:41:22;;;;;;;5.00;2.67;;;;;;;;;;4924739;29;20044;-43
2022/12/18 13:43:57;;;;;;;5.20;2.75;;;;;;;;;;4954301;28;20043;-43
2022/12/18 13:46:29;;;;;;;5.30;3.30;;;;;;;;;;4987806;28;20030;-43
2022/12/18 13:49:00;;;;;;;7.35;2.60;;;;;;;;;;4971080;28;20055;-43
2022/12/18 13:51:27;;;;;;;3.78;3.00;;;;;;;;;;4966445;28;20059;-42
2022/12/18 13:54:05;;;;;;;8.38;2.97;;;;;;;;;;4991031;28;20181;-43
2022/12/18 13:56:33;;;;;;;6.03;2.47;;;;;;;;;;4988839;28;20556;-44
2022/12/18 13:59:15;;;;;;;7.63;2.50;;;;;;;;;;4988855;28;20038;-43
2022/12/18 14:01:48;;;;;;;;;;;;;;;;;;4989966;28;20066;-43
2022/12/18 14:04:23;;;;;;;8.93;3.30;;;;;;;;;;4992071;28;19914;-43
2022/12/18 14:06:52;;;;;;;7.35;3.00;;;;;;;;;;4988667;28;20047;-43
2022/12/18 14:09:25;;;;;;;10.93;2.38;;;;;;;;;;4992417;28;20072;-43
2022/12/18 14:11:52;;;;;;;6.07;2.60;;;;;;;;;;4989274;28;20038;-45
2022/12/18 14:14:19;;;;;;;4.63;2.13;;;;;;;;;;4987392;28;20050;-46
2022/12/18 14:16:46;;;;;;;4.82;2.53;;;;;;;;;;4989388;28;20088;-42
2022/12/18 14:19:17;;;;;;;7.13;2.42;;;;;;;;;;4988136;28;20054;-43
2022/12/18 14:21:46;;;;;;;5.90;2.70;;;;;;;;;;4988356;28;20146;-44
2022/12/18 14:24:15;;;;;;;8.98;2.67;;;;;;;;;;4990321;28;20141;-42
2022/12/18 14:26:41;;;;;;;5.00;2.75;;;;;;;;;;4987601;28;20033;-43
2022/12/18 14:29:27;;;;;;;6.85;2.85;;;;;;;;;;4990905;28;20479;-44
2022/12/18 14:32:13;;;;;;;4.85;2.58;;;;;;;;;;4991541;28;20057;-48
2022/12/18 14:34:39;;;;;;;5.93;2.22;;;;;;;;;;4987248;28;20037;-43
2022/12/18 14:37:08;;;;;;;5.20;2.53;;;;;;;;;;4988469;28;20384;-41
2022/12/18 14:39:33;;;;;;;6.13;2.40;;;;;;;;;;4991020;28;20498;-41
2022/12/18 14:41:59;;;;;;;10.77;3.13;;;;;;;;;;4980264;28;20062;-46
2022/12/18 14:44:24;;;;;;;10.20;3.30;;;;;;;;;;4970406;28;20034;-43
2022/12/18 14:46:50;;;;;;;10.82;2.80;;;;;;;;;;4969961;28;20038;-43
2022/12/18 14:49:21;;;;;;;7.15;3.20;;;;;;;;;;4967743;28;20026;-43
2022/12/18 14:51:49;;;;;;;10.50;3.72;;;;;;;;;;4971898;28;20046;-44
2022/12/18 14:54:18;;;;;;;12.93;4.65;;;;;;;;;;4990769;28;20034;-41
2022/12/18 14:56:47;;;;;;;7.95;3.55;;;;;;;;;;4988776;28;20128;-41
2022/12/18 14:59:15;;;;;;;8.02;3.10;;;;;;;;;;4986186;28;20062;-44
2022/12/18 15:01:59;;;;;;;10.85;3.80;;;;;;;;;;4987517;28;20065;-41
2022/12/18 15:04:33;;;;;;;13.63;4.38;;;;;;;;;;4987188;28;20030;-43
2022/12/18 15:07:11;;;;;;;12.57;4.80;;;;;;;;;;4990511;28;20042;-42